GB-0625 weather

Aintree University Hospital Heliport
England, United Kingdom

Public forecast

Using degrees Celsius for public forecast. Weather courtesy of forecast.io.

Closest aviation weather report (METAR) to Aintree University Hospital Heliport

Report is more than 6 hours old.

Closest report is RAF Woodvale, 8.4 nm (15.5 km) NNW. Retrieved 2019/11/19 15:50 UTC (6 hours ago):

EGOW 191550Z 13010KT 8000 HZ FEW045 05/03 Q1012 RMK BLU

Closest aviation forecast (TAF) to Aintree University Hospital Heliport

Closest forecast is Liverpool John Lennon Airport, 8.4 nm (15.5 km) SSE. Retrieved 2019/11/19 18:00 UTC (4 hours ago):

TAF EGGP 191703Z 1918/2018 14010KT 6000 SCT040 TEMPO 1918/2018 13015G25KT PROB30 TEMPO 1918/2011 BKN012 BECMG 1921/1924 9999 TEMPO 2000/2012 9000